Time;durP1;ratioP1;P1;durP2;ratioP2;P2;SDS_P1;SDS_P2;PMS_P1;PMS_P2;Temp;Humidity;BMP_temperature;BMP_pressure;BME280_temperature;BME280_humidity;BME280_pressure;Samples;Min_cycle;Max_cycle;Signal;HPM_P1;HPM_P2
2023/07/21 00:14:28;;;;;;;8.10;6.60;;;;;;;15.71;74.03;98259.21;434370;1257;399898;-44
2023/07/21 00:24:35;;;;;;;6.70;6.10;;;;;;;15.72;74.32;98255.85;434693;1257;108111;-43
2023/07/21 00:34:42;;;;;;;9.10;6.60;;;;;;;15.72;74.45;98257.98;434774;1254;101365;-41
2023/07/21 00:44:49;;;;;;;8.60;6.20;;;;;;;15.72;74.51;98259.00;434746;1253;107307;-42
2023/07/21 00:54:56;;;;;;;7.20;5.90;;;;;;;15.67;74.71;98251.72;434870;1267;99243;-43
2023/07/21 01:05:05;;;;;;;8.60;6.20;;;;;;;15.58;74.74;98242.12;434761;1253;111757;-43
2023/07/21 01:15:11;;;;;;;6.70;5.80;;;;;;;15.57;74.95;98240.20;434724;1253;107608;-43
2023/07/21 01:25:19;;;;;;;11.40;6.60;;;;;;;15.55;75.21;98240.41;435862;1257;99228;-43
2023/07/21 01:45:37;;;;;;;8.60;5.80;;;;;;;15.29;75.19;98234.99;435130;1266;99263;-43
2023/07/21 01:55:43;;;;;;;9.80;6.30;;;;;;;15.19;75.57;98232.77;435159;1275;110804;-45
2023/07/21 02:05:50;;;;;;;6.80;5.80;;;;;;;15.04;75.67;98245.40;435175;1254;107692;-42
2023/07/21 02:15:57;;;;;;;5.50;4.90;;;;;;;15.12;76.22;98240.50;435144;1257;99224;-43
2023/07/21 02:26:03;;;;;;;10.60;6.90;;;;;;;15.19;76.18;98236.13;435151;1257;108308;-42
2023/07/21 02:36:10;;;;;;;9.30;7.90;;;;;;;14.96;76.18;98231.52;435261;1254;98668;-43
2023/07/21 02:46:17;;;;;;;9.50;6.70;;;;;;;14.82;76.30;98231.56;435235;1256;111875;-42
2023/07/21 02:56:24;;;;;;;7.60;6.50;;;;;;;14.81;76.69;98243.23;435107;1256;107258;-43
2023/07/21 03:06:33;;;;;;;9.50;6.90;;;;;;;14.84;76.53;98248.88;435157;1265;97983;-43
2023/07/21 03:26:46;;;;;;;9.30;6.40;;;;;;;14.84;76.98;98252.65;435084;1257;99259;-42
2023/07/21 03:36:53;;;;;;;10.40;6.60;;;;;;;14.95;77.24;98249.25;435243;1254;111982;-43
2023/07/21 03:47:00;;;;;;;9.90;8.00;;;;;;;15.04;77.44;98252.33;435222;1254;107982;-42
2023/07/21 03:57:08;;;;;;;14.30;7.90;;;;;;;15.25;77.37;98259.66;435253;1254;98007;-43
2023/07/21 04:07:15;;;;;;;9.70;8.20;;;;;;;15.37;77.31;98265.30;434956;1256;107509;-43
2023/07/21 04:17:23;;;;;;;11.20;7.50;;;;;;;15.38;77.22;98271.64;435054;1252;99215;-42
2023/07/21 04:27:30;;;;;;;11.20;8.20;;;;;;;15.53;77.60;98266.97;435288;1257;112510;-44
2023/07/21 04:37:38;;;;;;;10.30;8.50;;;;;;;15.60;77.45;98264.20;435099;1257;108746;-42
2023/07/21 04:47:49;;;;;;;11.70;8.20;;;;;;;16.18;77.61;98269.84;435285;1253;99243;-43
2023/07/21 04:57:56;;;;;;;7.80;6.60;;;;;;;17.61;77.05;98265.71;435163;1275;108494;-42
2023/07/21 05:08:03;;;;;;;9.70;7.40;;;;;;;18.06;76.14;98266.83;435267;1254;98008;-43
2023/07/21 05:18:10;;;;;;;10.10;7.50;;;;;;;18.50;75.83;98275.98;435066;1257;111804;-43
2023/07/21 05:48:30;;;;;;;12.30;11.10;;;;;;;19.45;73.41;98281.03;435230;1251;107462;-42
2023/07/21 05:58:37;;;;;;;6.70;5.40;;;;;;;19.55;73.05;98289.01;435169;1255;99224;-43
2023/07/21 06:08:44;;;;;;;9.30;6.00;;;;;;;19.66;72.70;98286.83;435351;1256;110967;-43
2023/07/21 06:18:50;;;;;;;4.90;4.40;;;;;;;20.06;72.61;98291.36;435172;1253;108399;-43
2023/07/21 06:28:57;;;;;;;7.30;4.70;;;;;;;20.21;72.01;98301.75;435245;1256;98477;-41
2023/07/21 06:49:11;;;;;;;4.80;4.40;;;;;;;20.77;70.85;98298.19;435307;1256;99296;-42
2023/07/21 06:59:18;;;;;;;7.30;4.50;;;;;;;21.32;70.38;98295.85;435257;1256;111076;-43
2023/07/21 07:09:26;;;;;;;8.00;4.50;;;;;;;22.08;69.29;98296.97;435309;1254;109260;-43
2023/07/21 07:19:32;;;;;;;6.10;4.20;;;;;;;22.32;68.20;98294.75;435368;1256;99225;-44
2023/07/21 07:29:38;;;;;;;3.70;3.40;;;;;;;23.05;67.26;98295.83;435169;1253;108394;-44
2023/07/21 07:39:46;;;;;;;3.60;3.30;;;;;;;23.26;65.80;98297.52;435328;1256;98669;-44
2023/07/21 07:49:51;;;;;;;4.60;2.50;;;;;;;23.63;65.00;98303.89;435221;1252;111456;-42
2023/07/21 08:10:03;;;;;;;2.70;1.60;;;;;;;24.34;61.60;98291.27;435320;1256;99168;-42
2023/07/21 08:20:12;;;;;;;2.40;2.00;;;;;;;23.88;60.30;98293.52;435207;1256;108507;-41
2023/07/21 08:30:19;;;;;;;1.80;1.50;;;;;;;23.47;59.26;98298.00;435335;1256;98838;-41
2023/07/21 08:40:25;;;;;;;2.90;1.60;;;;;;;23.30;59.33;98287.49;435210;1256;112024;-41
2023/07/21 09:00:34;;;;;;;1.60;1.30;;;;;;;23.39;57.48;98289.41;435257;1254;99250;-42
2023/07/21 09:10:44;;;;;;;2.60;1.50;;;;;;;23.59;56.68;98293.63;435270;1253;109059;-41
2023/07/21 09:20:52;;;;;;;2.00;1.30;;;;;;;23.64;56.18;98295.11;435177;1264;99269;-43
2023/07/21 09:30:59;;;;;;;1.80;1.50;;;;;;;23.29;55.89;98296.55;435379;1256;112229;-40
2023/07/21 09:41:06;;;;;;;1.30;1.30;;;;;;;23.08;56.08;98283.39;435220;1263;109355;-42
2023/07/21 09:51:13;;;;;;;1.50;1.40;;;;;;;22.99;56.36;98284.86;435246;1254;99253;-43
2023/07/21 10:11:29;;;;;;;2.30;2.10;;;;;;;22.62;56.81;98296.90;435322;1253;99244;-43
2023/07/21 10:31:52;;;;;;;4.50;2.20;;;;;;;22.58;56.96;98291.73;435230;1254;107622;-42
2023/07/21 10:41:59;;;;;;;3.60;2.00;;;;;;;22.63;56.14;98284.46;435322;1254;99224;-42
2023/07/21 11:12:19;;;;;;;2.70;2.10;;;;;;;22.86;55.30;98257.33;435241;1264;110978;-41
2023/07/21 11:22:27;;;;;;;1.90;1.50;;;;;;;23.14;54.66;98249.74;435122;1256;108193;-42
2023/07/21 11:32:34;;;;;;;3.20;2.00;;;;;;;23.78;53.70;98227.13;435302;1254;99221;-41
2023/07/21 11:52:49;;;;;;;2.30;2.00;;;;;;;23.90;52.21;98191.16;435052;1254;99260;-42
2023/07/21 12:02:57;;;;;;;2.00;1.90;;;;;;;23.97;50.51;98182.93;435199;1254;112212;-41
2023/07/21 12:23:10;;;;;;;1.80;1.70;;;;;;;24.53;49.10;98165.73;435222;1254;99240;-40
2023/07/21 12:33:20;;;;;;;3.80;1.70;;;;;;;24.91;49.04;98165.59;435218;1256;108541;-43
2023/07/21 12:43:28;;;;;;;4.70;2.40;;;;;;;24.99;48.44;98157.52;435137;1268;99311;-42
2023/07/21 12:53:35;;;;;;;3.00;2.50;;;;;;;24.97;47.65;98162.30;435460;1255;112101;-41
2023/07/21 13:03:46;;;;;;;1.80;1.50;;;;;;;25.09;47.74;98154.30;435490;1252;107623;-41
2023/07/21 13:13:53;;;;;;;1.80;1.60;;;;;;;25.15;47.63;98159.61;435667;1253;98926;-40
2023/07/21 13:24:02;;;;;;;2.40;1.50;;;;;;;25.21;46.85;98166.59;435384;1253;111834;-43
2023/07/21 13:34:09;;;;;;;1.50;1.40;;;;;;;24.54;46.41;98145.08;435521;1254;98078;-42
2023/07/21 13:44:17;;;;;;;1.70;1.60;;;;;;;24.51;46.69;98141.70;435334;1256;111703;-41
2023/07/21 14:04:28;;;;;;;2.20;1.80;;;;;;;25.28;46.35;98117.98;435307;1256;99262;-43
2023/07/21 14:14:35;;;;;;;6.10;1.70;;;;;;;25.23;45.71;98104.50;435101;1256;108893;-42
2023/07/21 14:24:41;;;;;;;2.10;1.90;;;;;;;25.28;45.44;98090.99;435273;1256;99214;-41
2023/07/21 14:34:50;;;;;;;2.50;2.20;;;;;;;25.11;45.01;98091.24;435289;1256;111963;-41
2023/07/21 14:44:58;;;;;;;2.40;2.00;;;;;;;25.39;45.59;98087.38;435172;1254;108674;-42
2023/07/21 15:05:18;;;;;;;3.70;2.30;;;;;;;24.95;44.90;98082.88;435034;1252;108928;-42
2023/07/21 15:15:25;;;;;;;2.60;2.10;;;;;;;24.89;45.34;98066.77;435180;1256;98807;-42
2023/07/21 15:25:33;;;;;;;3.90;2.30;;;;;;;24.71;45.30;98061.17;435195;1256;112792;-42
2023/07/21 15:35:37;;;;;;;;;;;;;;;24.65;45.15;98048.30;435079;1267;108716;-42
2023/07/21 15:55:49;;;;;;;3.30;2.70;;;;;;;24.49;45.11;98017.41;435055;1256;109122;-42
2023/07/21 16:05:57;;;;;;;3.80;2.90;;;;;;;24.22;45.54;98015.32;435072;1267;99290;-44
2023/07/21 16:16:07;;;;;;;6.40;3.50;;;;;;;24.28;45.66;97999.06;435029;1257;112539;-43
2023/07/21 16:36:25;;;;;;;5.90;3.40;;;;;;;24.15;45.23;97984.19;435044;1257;99215;-43
2023/07/21 16:46:33;;;;;;;6.50;3.80;;;;;;;24.02;45.69;97975.04;435006;1254;107624;-43
2023/07/21 16:56:41;;;;;;;4.00;3.50;;;;;;;23.87;46.02;97973.91;435015;1257;99229;-42
2023/07/21 17:06:48;;;;;;;6.00;3.70;;;;;;;23.62;46.43;97968.05;435039;1257;112220;-44
2023/07/21 17:16:55;;;;;;;;;;;;;;;23.38;47.11;97960.98;435095;1256;108312;-43
2023/07/21 17:27:03;;;;;;;6.90;3.90;;;;;;;23.21;47.57;97959.52;435023;1254;99208;-43
2023/07/21 17:37:12;;;;;;;9.80;4.10;;;;;;;23.02;48.08;97955.17;434958;1254;108735;-42
2023/07/21 17:47:20;;;;;;;4.80;3.90;;;;;;;22.84;48.80;97956.48;435102;1257;99220;-43
2023/07/21 18:07:33;;;;;;;7.40;4.10;;;;;;;22.43;50.19;97947.98;435117;1257;107284;-43
2023/07/21 18:27:45;;;;;;;7.60;5.10;;;;;;;21.88;51.83;97941.81;434279;1255;109306;-42
2023/07/21 18:37:52;;;;;;;11.00;5.20;;;;;;;21.65;52.40;97937.13;434423;1254;99233;-42
2023/07/21 18:58:05;;;;;;;8.10;5.20;;;;;;;21.25;53.46;97938.67;434294;1268;108970;-43
2023/07/21 19:08:12;;;;;;;9.40;5.20;;;;;;;21.03;53.91;97927.52;434419;1260;98917;-47
2023/07/21 19:18:19;;;;;;;8.30;6.20;;;;;;;20.89;54.58;97932.71;434374;1267;108136;-42
2023/07/21 19:28:27;;;;;;;8.50;4.70;;;;;;;20.79;55.42;97949.43;435036;1266;99227;-43
2023/07/21 19:38:33;;;;;;;;;;;;;;;20.78;55.75;97964.13;435230;1257;112197;-42
2023/07/21 19:48:39;;;;;;;7.10;5.90;;;;;;;20.64;56.36;97960.43;435001;1257;108076;-44
2023/07/21 19:58:47;;;;;;;8.70;5.80;;;;;;;20.46;57.02;97974.14;434977;1258;99180;-43
2023/07/21 20:08:56;;;;;;;6.50;5.20;;;;;;;20.49;57.85;97985.65;435021;1257;108287;-42
2023/07/21 20:19:03;;;;;;;8.30;5.90;;;;;;;20.38;58.54;97975.27;435218;1254;99253;-41
2023/07/21 20:29:10;;;;;;;8.40;5.70;;;;;;;20.32;59.20;97992.96;435242;1257;111059;-41
2023/07/21 20:39:17;;;;;;;9.30;7.50;;;;;;;20.19;59.73;98042.15;435010;1253;109337;-42
2023/07/21 20:59:30;;;;;;;9.80;6.20;;;;;;;18.96;62.53;98131.23;435087;1257;109433;-43
2023/07/21 21:09:46;;;;;;;18.80;5.80;;;;;;;18.66;64.05;98145.34;435103;1258;99209;-42
2023/07/21 21:19:54;;;;;;;12.40;6.10;;;;;;;18.36;64.87;98163.92;435092;1257;111212;-45
2023/07/21 21:30:01;;;;;;;6.90;6.00;;;;;;;18.12;66.08;98160.42;435088;1264;107684;-44
2023/07/21 22:00:21;;;;;;;5.90;4.50;;;;;;;17.40;68.39;98090.45;435124;1257;99247;-46
2023/07/21 22:10:29;;;;;;;4.10;3.60;;;;;;;17.42;69.04;98074.06;435010;1254;111459;-43
2023/07/21 22:30:40;;;;;;;13.40;6.20;;;;;;;17.13;70.58;98033.13;435122;1254;99215;-44
2023/07/21 22:40:48;;;;;;;44.40;21.50;;;;;;;17.30;71.05;98034.89;434955;1267;107840;-44
2023/07/21 22:50:54;;;;;;;49.60;23.60;;;;;;;17.36;71.28;98036.63;435155;1255;99234;-44
2023/07/21 23:01:04;;;;;;;35.20;17.60;;;;;;;17.39;71.36;98037.91;435098;1253;111938;-44
2023/07/21 23:11:11;;;;;;;17.50;8.40;;;;;;;17.24;71.72;98041.59;435216;1256;107598;-44
2023/07/21 23:21:18;;;;;;;7.60;5.50;;;;;;;17.09;72.04;98035.63;435061;1257;98833;-42
2023/07/21 23:31:24;;;;;;;7.90;4.80;;;;;;;16.98;72.59;98036.57;435109;1256;108874;-42
2023/07/21 23:41:30;;;;;;;8.10;4.50;;;;;;;16.85;73.42;98031.02;435171;1252;99234;-42
2023/07/21 23:51:38;;;;;;;6.20;4.30;;;;;;;16.78;73.80;98033.16;435185;1256;112932;-43
